Terminal Aerodrome Forecast
Issued by NWS

Home | Current Version | Previous Version | Text Only | Print | Product List | Glossary On
Versions: 1 2 3 4 5 6 7 8 9 10 11 12 13 14 15 16 17 18 19 20 21 22 23 24 25 26 27 28 29 30 31 32 33
819
FTUS41 KOKX 232330
TAFTEB
TAF
KTEB 232330Z 2400/2424 14007KT P6SM SCT025 BKN045
      TEMPO 2400/2402 BKN025
     FM240200 12006KT P6SM VCSH BKN025
     FM240400 11009KT 6SM -SHRA SCT015 OVC025
     FM240600 10009KT 4SM SHRA BR OVC015
     FM241000 07007KT 4SM SHRA OVC008
     FM241500 04008G15KT 6SM -SHRA OVC015
     FM241900 05010KT P6SM BKN025
     FM242200 04009KT P6SM BKN050=

USA.gov is the U.S. government's official web portal to all federal, state and local government web resources and services.